sensor_id;sensor_type;location;lat;lon;timestamp;P1;durP1;ratioP1;P2;durP2;ratioP2
47373;SDS011;33123;50.118;10.272;2023-04-29T00:02:15;3.30;;;2.78;;
47373;SDS011;33123;50.118;10.272;2023-04-29T00:04:42;4.13;;;2.95;;
47373;SDS011;33123;50.118;10.272;2023-04-29T00:07:10;2.92;;;2.63;;
47373;SDS011;33123;50.118;10.272;2023-04-29T00:09:39;2.65;;;2.45;;
47373;SDS011;33123;50.118;10.272;2023-04-29T00:12:06;2.10;;;1.90;;
47373;SDS011;33123;50.118;10.272;2023-04-29T00:14:34;2.70;;;2.45;;
47373;SDS011;33123;50.118;10.272;2023-04-29T00:17:01;2.95;;;2.05;;
47373;SDS011;33123;50.118;10.272;2023-04-29T00:19:27;5.38;;;2.75;;
47373;SDS011;33123;50.118;10.272;2023-04-29T00:21:54;3.90;;;2.80;;
47373;SDS011;33123;50.118;10.272;2023-04-29T00:24:22;4.10;;;2.90;;
47373;SDS011;33123;50.118;10.272;2023-04-29T00:26:48;2.30;;;2.10;;
47373;SDS011;33123;50.118;10.272;2023-04-29T00:29:15;2.20;;;1.60;;
47373;SDS011;33123;50.118;10.272;2023-04-29T00:31:42;2.40;;;2.20;;
47373;SDS011;33123;50.118;10.272;2023-04-29T00:34:09;2.22;;;1.95;;
47373;SDS011;33123;50.118;10.272;2023-04-29T00:36:36;1.88;;;1.75;;
47373;SDS011;33123;50.118;10.272;2023-04-29T00:39:02;2.75;;;2.20;;
47373;SDS011;33123;50.118;10.272;2023-04-29T00:41:31;2.00;;;1.80;;
47373;SDS011;33123;50.118;10.272;2023-04-29T00:43:58;3.03;;;2.33;;
47373;SDS011;33123;50.118;10.272;2023-04-29T00:46:24;3.22;;;2.15;;
47373;SDS011;33123;50.118;10.272;2023-04-29T00:48:51;2.22;;;1.88;;
47373;SDS011;33123;50.118;10.272;2023-04-29T00:51:18;5.03;;;2.38;;
47373;SDS011;33123;50.118;10.272;2023-04-29T00:53:44;5.22;;;3.97;;
47373;SDS011;33123;50.118;10.272;2023-04-29T00:56:11;3.97;;;2.50;;
47373;SDS011;33123;50.118;10.272;2023-04-29T00:58:40;3.33;;;2.00;;
47373;SDS011;33123;50.118;10.272;2023-04-29T01:01:09;2.40;;;1.70;;
47373;SDS011;33123;50.118;10.272;2023-04-29T01:03:36;1.73;;;1.45;;
47373;SDS011;33123;50.118;10.272;2023-04-29T01:06:06;1.45;;;1.35;;
47373;SDS011;33123;50.118;10.272;2023-04-29T01:08:41;2.53;;;1.90;;
47373;SDS011;33123;50.118;10.272;2023-04-29T01:11:15;1.77;;;1.60;;
47373;SDS011;33123;50.118;10.272;2023-04-29T01:13:49;2.85;;;1.95;;
47373;SDS011;33123;50.118;10.272;2023-04-29T01:16:18;2.05;;;1.73;;
47373;SDS011;33123;50.118;10.272;2023-04-29T01:18:49;1.48;;;1.38;;
47373;SDS011;33123;50.118;10.272;2023-04-29T01:21:20;1.60;;;1.40;;
47373;SDS011;33123;50.118;10.272;2023-04-29T01:23:48;2.22;;;2.03;;
47373;SDS011;33123;50.118;10.272;2023-04-29T01:26:20;1.70;;;1.55;;
47373;SDS011;33123;50.118;10.272;2023-04-29T01:28:48;1.90;;;1.45;;
47373;SDS011;33123;50.118;10.272;2023-04-29T01:31:21;2.10;;;1.90;;
47373;SDS011;33123;50.118;10.272;2023-04-29T01:34:01;1.65;;;1.55;;
47373;SDS011;33123;50.118;10.272;2023-04-29T01:36:36;1.83;;;1.70;;
47373;SDS011;33123;50.118;10.272;2023-04-29T01:39:12;2.58;;;2.10;;
47373;SDS011;33123;50.118;10.272;2023-04-29T01:41:42;1.95;;;1.17;;
47373;SDS011;33123;50.118;10.272;2023-04-29T01:44:12;2.15;;;1.80;;
47373;SDS011;33123;50.118;10.272;2023-04-29T01:46:42;2.03;;;1.80;;
47373;SDS011;33123;50.118;10.272;2023-04-29T01:49:12;1.90;;;1.73;;
47373;SDS011;33123;50.118;10.272;2023-04-29T01:51:39;1.63;;;1.50;;
47373;SDS011;33123;50.118;10.272;2023-04-29T01:54:05;2.35;;;2.08;;
47373;SDS011;33123;50.118;10.272;2023-04-29T01:56:33;1.88;;;1.63;;
47373;SDS011;33123;50.118;10.272;2023-04-29T01:59:00;2.55;;;2.25;;
47373;SDS011;33123;50.118;10.272;2023-04-29T02:01:27;1.50;;;1.40;;
47373;SDS011;33123;50.118;10.272;2023-04-29T02:03:53;4.05;;;3.28;;
47373;SDS011;33123;50.118;10.272;2023-04-29T02:06:20;1.73;;;1.50;;
47373;SDS011;33123;50.118;10.272;2023-04-29T02:08:46;2.35;;;2.05;;
47373;SDS011;33123;50.118;10.272;2023-04-29T02:11:13;2.28;;;1.52;;
47373;SDS011;33123;50.118;10.272;2023-04-29T02:13:41;1.48;;;1.30;;
47373;SDS011;33123;50.118;10.272;2023-04-29T02:16:08;1.67;;;1.55;;
47373;SDS011;33123;50.118;10.272;2023-04-29T02:18:35;2.10;;;1.85;;
47373;SDS011;33123;50.118;10.272;2023-04-29T02:21:02;2.08;;;1.88;;
47373;SDS011;33123;50.118;10.272;2023-04-29T02:23:29;1.75;;;1.63;;
47373;SDS011;33123;50.118;10.272;2023-04-29T02:25:56;1.77;;;1.67;;
47373;SDS011;33123;50.118;10.272;2023-04-29T02:28:23;2.15;;;1.85;;
47373;SDS011;33123;50.118;10.272;2023-04-29T02:30:50;2.40;;;2.17;;
47373;SDS011;33123;50.118;10.272;2023-04-29T02:33:17;1.83;;;1.55;;
47373;SDS011;33123;50.118;10.272;2023-04-29T02:35:44;2.45;;;2.25;;
47373;SDS011;33123;50.118;10.272;2023-04-29T02:38:10;2.70;;;2.42;;
47373;SDS011;33123;50.118;10.272;2023-04-29T02:40:40;2.13;;;1.75;;
47373;SDS011;33123;50.118;10.272;2023-04-29T02:43:07;1.88;;;1.77;;
47373;SDS011;33123;50.118;10.272;2023-04-29T02:45:33;2.70;;;2.13;;
47373;SDS011;33123;50.118;10.272;2023-04-29T02:48:01;5.93;;;2.58;;
47373;SDS011;33123;50.118;10.272;2023-04-29T02:50:28;3.05;;;2.03;;
47373;SDS011;33123;50.118;10.272;2023-04-29T02:52:55;2.20;;;2.00;;
47373;SDS011;33123;50.118;10.272;2023-04-29T02:55:21;2.17;;;1.98;;
47373;SDS011;33123;50.118;10.272;2023-04-29T02:57:48;2.05;;;1.85;;
47373;SDS011;33123;50.118;10.272;2023-04-29T03:00:15;2.17;;;1.90;;
47373;SDS011;33123;50.118;10.272;2023-04-29T03:02:41;6.50;;;3.05;;
47373;SDS011;33123;50.118;10.272;2023-04-29T03:05:09;2.20;;;2.00;;
47373;SDS011;33123;50.118;10.272;2023-04-29T03:07:36;3.13;;;2.75;;
47373;SDS011;33123;50.118;10.272;2023-04-29T03:10:03;2.63;;;2.28;;
47373;SDS011;33123;50.118;10.272;2023-04-29T03:12:31;1.98;;;1.65;;
47373;SDS011;33123;50.118;10.272;2023-04-29T03:14:57;2.67;;;2.47;;
47373;SDS011;33123;50.118;10.272;2023-04-29T03:17:24;1.73;;;1.50;;
47373;SDS011;33123;50.118;10.272;2023-04-29T03:19:51;2.65;;;2.08;;
47373;SDS011;33123;50.118;10.272;2023-04-29T03:22:19;2.30;;;2.05;;
47373;SDS011;33123;50.118;10.272;2023-04-29T03:24:46;2.28;;;2.08;;
47373;SDS011;33123;50.118;10.272;2023-04-29T03:27:13;2.30;;;2.10;;
47373;SDS011;33123;50.118;10.272;2023-04-29T03:29:39;2.15;;;1.92;;
47373;SDS011;33123;50.118;10.272;2023-04-29T03:32:06;2.22;;;1.63;;
47373;SDS011;33123;50.118;10.272;2023-04-29T03:34:32;3.50;;;2.17;;
47373;SDS011;33123;50.118;10.272;2023-04-29T03:36:59;2.70;;;2.20;;
47373;SDS011;33123;50.118;10.272;2023-04-29T03:39:27;1.63;;;1.50;;
47373;SDS011;33123;50.118;10.272;2023-04-29T03:41:56;2.10;;;1.90;;
47373;SDS011;33123;50.118;10.272;2023-04-29T03:44:23;2.05;;;1.85;;
47373;SDS011;33123;50.118;10.272;2023-04-29T03:46:50;2.13;;;1.85;;
47373;SDS011;33123;50.118;10.272;2023-04-29T03:49:16;4.82;;;2.38;;
47373;SDS011;33123;50.118;10.272;2023-04-29T03:51:43;1.83;;;1.65;;
47373;SDS011;33123;50.118;10.272;2023-04-29T03:54:10;1.65;;;1.55;;
47373;SDS011;33123;50.118;10.272;2023-04-29T03:56:38;2.38;;;2.20;;
47373;SDS011;33123;50.118;10.272;2023-04-29T03:59:05;2.03;;;1.80;;
47373;SDS011;33123;50.118;10.272;2023-04-29T04:01:32;2.53;;;2.33;;
47373;SDS011;33123;50.118;10.272;2023-04-29T04:03:59;2.65;;;2.00;;
47373;SDS011;33123;50.118;10.272;2023-04-29T04:06:25;3.03;;;1.80;;
47373;SDS011;33123;50.118;10.272;2023-04-29T04:08:55;4.00;;;1.95;;
47373;SDS011;33123;50.118;10.272;2023-04-29T04:11:22;2.72;;;2.42;;
47373;SDS011;33123;50.118;10.272;2023-04-29T04:13:50;2.78;;;2.58;;
47373;SDS011;33123;50.118;10.272;2023-04-29T04:16:16;2.10;;;1.90;;
47373;SDS011;33123;50.118;10.272;2023-04-29T04:18:43;2.63;;;2.25;;
47373;SDS011;33123;50.118;10.272;2023-04-29T04:21:10;3.35;;;3.05;;
47373;SDS011;33123;50.118;10.272;2023-04-29T04:23:37;2.97;;;2.35;;
47373;SDS011;33123;50.118;10.272;2023-04-29T04:26:05;2.80;;;1.90;;
47373;SDS011;33123;50.118;10.272;2023-04-29T04:28:32;3.95;;;2.78;;
47373;SDS011;33123;50.118;10.272;2023-04-29T04:30:59;3.95;;;2.30;;
47373;SDS011;33123;50.118;10.272;2023-04-29T04:33:26;3.05;;;2.47;;
47373;SDS011;33123;50.118;10.272;2023-04-29T04:35:53;2.60;;;2.30;;
47373;SDS011;33123;50.118;10.272;2023-04-29T04:38:19;2.33;;;2.15;;
47373;SDS011;33123;50.118;10.272;2023-04-29T04:40:49;3.95;;;3.53;;
47373;SDS011;33123;50.118;10.272;2023-04-29T04:43:15;2.55;;;1.98;;
47373;SDS011;33123;50.118;10.272;2023-04-29T04:45:43;2.63;;;2.42;;
47373;SDS011;33123;50.118;10.272;2023-04-29T04:48:11;3.00;;;2.50;;
47373;SDS011;33123;50.118;10.272;2023-04-29T04:53:05;3.25;;;2.22;;
47373;SDS011;33123;50.118;10.272;2023-04-29T04:55:31;4.57;;;2.58;;
47373;SDS011;33123;50.118;10.272;2023-04-29T04:57:58;2.45;;;2.25;;
47373;SDS011;33123;50.118;10.272;2023-04-29T05:00:25;3.35;;;2.30;;
47373;SDS011;33123;50.118;10.272;2023-04-29T05:02:51;3.78;;;2.35;;
47373;SDS011;33123;50.118;10.272;2023-04-29T05:05:19;3.08;;;2.35;;
47373;SDS011;33123;50.118;10.272;2023-04-29T05:07:46;3.70;;;3.13;;
47373;SDS011;33123;50.118;10.272;2023-04-29T05:13:53;2.95;;;2.20;;
47373;SDS011;33123;50.118;10.272;2023-04-29T05:16:20;1.92;;;1.83;;
47373;SDS011;33123;50.118;10.272;2023-04-29T05:18:46;4.13;;;2.10;;
47373;SDS011;33123;50.118;10.272;2023-04-29T05:21:14;1.85;;;1.65;;
47373;SDS011;33123;50.118;10.272;2023-04-29T05:23:41;1.80;;;1.70;;
47373;SDS011;33123;50.118;10.272;2023-04-29T05:26:08;4.25;;;2.92;;
47373;SDS011;33123;50.118;10.272;2023-04-29T05:28:35;2.65;;;1.60;;
47373;SDS011;33123;50.118;10.272;2023-04-29T05:31:01;1.70;;;1.60;;
47373;SDS011;33123;50.118;10.272;2023-04-29T05:33:28;3.60;;;2.55;;
47373;SDS011;33123;50.118;10.272;2023-04-29T05:39:37;3.50;;;2.63;;
47373;SDS011;33123;50.118;10.272;2023-04-29T05:42:03;2.88;;;2.20;;
47373;SDS011;33123;50.118;10.272;2023-04-29T05:44:31;2.53;;;2.28;;
47373;SDS011;33123;50.118;10.272;2023-04-29T05:46:58;4.07;;;2.33;;
47373;SDS011;33123;50.118;10.272;2023-04-29T05:49:25;2.28;;;2.03;;
47373;SDS011;33123;50.118;10.272;2023-04-29T05:51:51;2.88;;;2.08;;
47373;SDS011;33123;50.118;10.272;2023-04-29T05:54:18;2.67;;;2.13;;
47373;SDS011;33123;50.118;10.272;2023-04-29T05:56:46;3.33;;;3.05;;
47373;SDS011;33123;50.118;10.272;2023-04-29T05:59:13;2.58;;;2.35;;
47373;SDS011;33123;50.118;10.272;2023-04-29T06:01:39;5.13;;;2.70;;
47373;SDS011;33123;50.118;10.272;2023-04-29T06:04:06;3.10;;;2.85;;
47373;SDS011;33123;50.118;10.272;2023-04-29T06:06:33;3.80;;;3.45;;
47373;SDS011;33123;50.118;10.272;2023-04-29T06:08:59;3.17;;;2.15;;
47373;SDS011;33123;50.118;10.272;2023-04-29T06:11:26;2.58;;;2.30;;
47373;SDS011;33123;50.118;10.272;2023-04-29T06:13:54;3.30;;;3.00;;
47373;SDS011;33123;50.118;10.272;2023-04-29T06:16:21;3.70;;;2.97;;
47373;SDS011;33123;50.118;10.272;2023-04-29T06:18:48;3.85;;;3.17;;
47373;SDS011;33123;50.118;10.272;2023-04-29T06:21:15;4.82;;;2.67;;
47373;SDS011;33123;50.118;10.272;2023-04-29T06:23:41;4.53;;;2.83;;
47373;SDS011;33123;50.118;10.272;2023-04-29T06:26:08;2.83;;;2.38;;
47373;SDS011;33123;50.118;10.272;2023-04-29T06:28:34;3.50;;;3.20;;
47373;SDS011;33123;50.118;10.272;2023-04-29T06:31:03;3.17;;;2.80;;
47373;SDS011;33123;50.118;10.272;2023-04-29T06:33:29;4.35;;;2.97;;
47373;SDS011;33123;50.118;10.272;2023-04-29T06:35:58;4.05;;;3.60;;
47373;SDS011;33123;50.118;10.272;2023-04-29T06:38:24;2.72;;;2.17;;
47373;SDS011;33123;50.118;10.272;2023-04-29T06:40:51;2.10;;;2.00;;
47373;SDS011;33123;50.118;10.272;2023-04-29T06:43:18;2.05;;;1.83;;
47373;SDS011;33123;50.118;10.272;2023-04-29T06:45:45;3.63;;;2.63;;
47373;SDS011;33123;50.118;10.272;2023-04-29T06:48:13;3.28;;;2.25;;
47373;SDS011;33123;50.118;10.272;2023-04-29T06:50:47;2.30;;;2.08;;
47373;SDS011;33123;50.118;10.272;2023-04-29T06:53:14;3.15;;;2.72;;
47373;SDS011;33123;50.118;10.272;2023-04-29T06:55:41;3.22;;;2.47;;
47373;SDS011;33123;50.118;10.272;2023-04-29T06:58:07;2.22;;;1.73;;
47373;SDS011;33123;50.118;10.272;2023-04-29T07:00:34;3.05;;;2.40;;
47373;SDS011;33123;50.118;10.272;2023-04-29T07:03:01;2.97;;;2.35;;
47373;SDS011;33123;50.118;10.272;2023-04-29T07:05:29;2.15;;;1.95;;
47373;SDS011;33123;50.118;10.272;2023-04-29T07:07:55;2.92;;;2.63;;
47373;SDS011;33123;50.118;10.272;2023-04-29T07:10:22;3.60;;;2.90;;
47373;SDS011;33123;50.118;10.272;2023-04-29T07:12:50;3.70;;;2.10;;
47373;SDS011;33123;50.118;10.272;2023-04-29T07:15:17;2.17;;;1.95;;
47373;SDS011;33123;50.118;10.272;2023-04-29T07:17:43;3.67;;;2.13;;
47373;SDS011;33123;50.118;10.272;2023-04-29T07:20:10;2.08;;;1.92;;
47373;SDS011;33123;50.118;10.272;2023-04-29T07:22:39;2.85;;;2.30;;
47373;SDS011;33123;50.118;10.272;2023-04-29T07:25:06;2.80;;;2.40;;
47373;SDS011;33123;50.118;10.272;2023-04-29T07:27:34;1.95;;;1.83;;
47373;SDS011;33123;50.118;10.272;2023-04-29T07:30:01;2.45;;;2.25;;
47373;SDS011;33123;50.118;10.272;2023-04-29T07:32:28;2.70;;;2.50;;
47373;SDS011;33123;50.118;10.272;2023-04-29T07:34:56;3.00;;;2.70;;
47373;SDS011;33123;50.118;10.272;2023-04-29T07:37:23;3.63;;;1.98;;
47373;SDS011;33123;50.118;10.272;2023-04-29T07:39:51;2.45;;;2.25;;
47373;SDS011;33123;50.118;10.272;2023-04-29T07:42:18;3.92;;;2.72;;
47373;SDS011;33123;50.118;10.272;2023-04-29T07:44:44;3.45;;;2.05;;
47373;SDS011;33123;50.118;10.272;2023-04-29T07:47:11;3.00;;;2.47;;
47373;SDS011;33123;50.118;10.272;2023-04-29T07:49:37;2.47;;;2.28;;
47373;SDS011;33123;50.118;10.272;2023-04-29T07:52:04;6.65;;;3.35;;
47373;SDS011;33123;50.118;10.272;2023-04-29T07:54:31;3.42;;;2.30;;
47373;SDS011;33123;50.118;10.272;2023-04-29T07:56:59;2.58;;;2.35;;
47373;SDS011;33123;50.118;10.272;2023-04-29T07:59:27;5.88;;;4.22;;
47373;SDS011;33123;50.118;10.272;2023-04-29T08:01:54;7.28;;;5.22;;
47373;SDS011;33123;50.118;10.272;2023-04-29T08:04:21;4.13;;;3.05;;
47373;SDS011;33123;50.118;10.272;2023-04-29T08:06:48;4.40;;;3.58;;
47373;SDS011;33123;50.118;10.272;2023-04-29T08:09:15;5.63;;;2.60;;
47373;SDS011;33123;50.118;10.272;2023-04-29T08:11:42;4.35;;;3.05;;
47373;SDS011;33123;50.118;10.272;2023-04-29T08:14:11;2.50;;;1.98;;
47373;SDS011;33123;50.118;10.272;2023-04-29T08:16:37;6.53;;;2.83;;
47373;SDS011;33123;50.118;10.272;2023-04-29T08:19:04;3.35;;;2.03;;
47373;SDS011;33123;50.118;10.272;2023-04-29T08:21:30;1.75;;;1.65;;
47373;SDS011;33123;50.118;10.272;2023-04-29T08:23:58;2.85;;;2.28;;
47373;SDS011;33123;50.118;10.272;2023-04-29T08:26:25;2.83;;;1.90;;
47373;SDS011;33123;50.118;10.272;2023-04-29T08:28:52;2.30;;;2.08;;
47373;SDS011;33123;50.118;10.272;2023-04-29T08:31:20;3.35;;;2.25;;
47373;SDS011;33123;50.118;10.272;2023-04-29T08:33:47;2.35;;;2.05;;
47373;SDS011;33123;50.118;10.272;2023-04-29T08:36:14;2.40;;;2.20;;
47373;SDS011;33123;50.118;10.272;2023-04-29T08:38:41;2.08;;;1.88;;
47373;SDS011;33123;50.118;10.272;2023-04-29T08:41:07;2.80;;;2.05;;
47373;SDS011;33123;50.118;10.272;2023-04-29T08:43:35;3.83;;;2.38;;
47373;SDS011;33123;50.118;10.272;2023-04-29T08:46:04;2.13;;;1.92;;
47373;SDS011;33123;50.118;10.272;2023-04-29T08:48:33;2.50;;;2.03;;
47373;SDS011;33123;50.118;10.272;2023-04-29T08:51:01;2.50;;;2.22;;
47373;SDS011;33123;50.118;10.272;2023-04-29T08:53:28;2.33;;;2.13;;
47373;SDS011;33123;50.118;10.272;2023-04-29T08:55:56;3.05;;;2.75;;
47373;SDS011;33123;50.118;10.272;2023-04-29T08:58:26;2.33;;;2.05;;
47373;SDS011;33123;50.118;10.272;2023-04-29T09:00:54;3.25;;;2.42;;
47373;SDS011;33123;50.118;10.272;2023-04-29T09:03:24;2.30;;;1.60;;
47373;SDS011;33123;50.118;10.272;2023-04-29T09:05:57;2.03;;;1.85;;
47373;SDS011;33123;50.118;10.272;2023-04-29T09:08:26;4.30;;;2.60;;
47373;SDS011;33123;50.118;10.272;2023-04-29T09:10:53;2.00;;;1.83;;
47373;SDS011;33123;50.118;10.272;2023-04-29T09:13:23;1.77;;;1.42;;
47373;SDS011;33123;50.118;10.272;2023-04-29T09:15:50;2.50;;;2.13;;
47373;SDS011;33123;50.118;10.272;2023-04-29T09:21:12;2.65;;;2.45;;
47373;SDS011;33123;50.118;10.272;2023-04-29T09:23:42;1.85;;;1.67;;
47373;SDS011;33123;50.118;10.272;2023-04-29T09:26:09;4.10;;;2.00;;
47373;SDS011;33123;50.118;10.272;2023-04-29T09:28:36;3.47;;;2.22;;
47373;SDS011;33123;50.118;10.272;2023-04-29T09:31:04;1.85;;;1.75;;
47373;SDS011;33123;50.118;10.272;2023-04-29T09:33:46;2.30;;;2.10;;
47373;SDS011;33123;50.118;10.272;2023-04-29T09:36:28;1.50;;;1.40;;
47373;SDS011;33123;50.118;10.272;2023-04-29T09:39:01;1.80;;;1.55;;
47373;SDS011;33123;50.118;10.272;2023-04-29T09:41:29;2.03;;;1.30;;
47373;SDS011;33123;50.118;10.272;2023-04-29T09:44:01;1.60;;;1.50;;
47373;SDS011;33123;50.118;10.272;2023-04-29T09:48:56;1.42;;;1.20;;
47373;SDS011;33123;50.118;10.272;2023-04-29T09:51:23;2.10;;;1.92;;
47373;SDS011;33123;50.118;10.272;2023-04-29T09:53:51;2.70;;;1.73;;
47373;SDS011;33123;50.118;10.272;2023-04-29T09:56:18;3.20;;;1.92;;
47373;SDS011;33123;50.118;10.272;2023-04-29T09:58:45;1.38;;;1.27;;
47373;SDS011;33123;50.118;10.272;2023-04-29T10:01:12;1.73;;;1.38;;
47373;SDS011;33123;50.118;10.272;2023-04-29T10:03:43;2.30;;;1.75;;
47373;SDS011;33123;50.118;10.272;2023-04-29T10:06:12;1.45;;;1.35;;
47373;SDS011;33123;50.118;10.272;2023-04-29T10:08:42;2.58;;;1.70;;
47373;SDS011;33123;50.118;10.272;2023-04-29T10:11:13;1.38;;;1.27;;
47373;SDS011;33123;50.118;10.272;2023-04-29T10:13:41;3.03;;;2.13;;
47373;SDS011;33123;50.118;10.272;2023-04-29T10:16:11;4.22;;;1.90;;
47373;SDS011;33123;50.118;10.272;2023-04-29T10:18:47;1.80;;;1.30;;
47373;SDS011;33123;50.118;10.272;2023-04-29T10:21:20;1.58;;;1.48;;
47373;SDS011;33123;50.118;10.272;2023-04-29T10:23:49;1.65;;;1.55;;
47373;SDS011;33123;50.118;10.272;2023-04-29T10:26:19;1.60;;;1.50;;
47373;SDS011;33123;50.118;10.272;2023-04-29T10:28:47;4.13;;;2.42;;
47373;SDS011;33123;50.118;10.272;2023-04-29T10:31:16;2.05;;;1.70;;
47373;SDS011;33123;50.118;10.272;2023-04-29T10:33:45;3.30;;;1.90;;
47373;SDS011;33123;50.118;10.272;2023-04-29T10:36:13;1.77;;;1.67;;
47373;SDS011;33123;50.118;10.272;2023-04-29T10:38:41;2.13;;;1.65;;
47373;SDS011;33123;50.118;10.272;2023-04-29T10:41:13;1.83;;;1.73;;
47373;SDS011;33123;50.118;10.272;2023-04-29T10:43:47;1.70;;;1.60;;
47373;SDS011;33123;50.118;10.272;2023-04-29T10:46:17;1.30;;;1.20;;
47373;SDS011;33123;50.118;10.272;2023-04-29T10:48:45;1.40;;;1.30;;
47373;SDS011;33123;50.118;10.272;2023-04-29T10:51:13;1.48;;;1.38;;
47373;SDS011;33123;50.118;10.272;2023-04-29T10:53:59;1.35;;;1.25;;
47373;SDS011;33123;50.118;10.272;2023-04-29T10:56:37;2.15;;;1.95;;
47373;SDS011;33123;50.118;10.272;2023-04-29T10:59:06;1.40;;;1.30;;
47373;SDS011;33123;50.118;10.272;2023-04-29T11:01:45;1.98;;;1.38;;
47373;SDS011;33123;50.118;10.272;2023-04-29T11:04:13;1.20;;;1.10;;
47373;SDS011;33123;50.118;10.272;2023-04-29T11:06:42;1.55;;;1.08;;
47373;SDS011;33123;50.118;10.272;2023-04-29T11:09:17;0.90;;;0.90;;
47373;SDS011;33123;50.118;10.272;2023-04-29T11:11:46;1.40;;;1.30;;
47373;SDS011;33123;50.118;10.272;2023-04-29T11:14:26;0.75;;;0.75;;
47373;SDS011;33123;50.118;10.272;2023-04-29T11:16:56;1.48;;;1.38;;
47373;SDS011;33123;50.118;10.272;2023-04-29T11:19:25;1.25;;;1.15;;
47373;SDS011;33123;50.118;10.272;2023-04-29T11:22:03;1.95;;;1.80;;
47373;SDS011;33123;50.118;10.272;2023-04-29T11:24:35;3.75;;;2.17;;
47373;SDS011;33123;50.118;10.272;2023-04-29T11:27:13;0.90;;;0.90;;
47373;SDS011;33123;50.118;10.272;2023-04-29T11:29:42;1.33;;;1.30;;
47373;SDS011;33123;50.118;10.272;2023-04-29T11:32:10;2.05;;;1.90;;
47373;SDS011;33123;50.118;10.272;2023-04-29T11:34:37;1.38;;;1.27;;
47373;SDS011;33123;50.118;10.272;2023-04-29T11:37:04;1.33;;;1.10;;
47373;SDS011;33123;50.118;10.272;2023-04-29T11:39:32;2.00;;;1.80;;
47373;SDS011;33123;50.118;10.272;2023-04-29T11:42:02;1.45;;;1.30;;
47373;SDS011;33123;50.118;10.272;2023-04-29T11:44:29;1.73;;;1.63;;
47373;SDS011;33123;50.118;10.272;2023-04-29T11:47:01;1.38;;;1.27;;
47373;SDS011;33123;50.118;10.272;2023-04-29T11:49:29;1.45;;;1.35;;
47373;SDS011;33123;50.118;10.272;2023-04-29T11:51:56;1.13;;;1.02;;
47373;SDS011;33123;50.118;10.272;2023-04-29T11:54:24;1.58;;;1.00;;
47373;SDS011;33123;50.118;10.272;2023-04-29T11:56:52;1.55;;;1.45;;
47373;SDS011;33123;50.118;10.272;2023-04-29T11:59:19;1.15;;;0.90;;
47373;SDS011;33123;50.118;10.272;2023-04-29T12:01:46;3.22;;;2.40;;
47373;SDS011;33123;50.118;10.272;2023-04-29T12:04:15;1.48;;;1.38;;
47373;SDS011;33123;50.118;10.272;2023-04-29T12:06:42;0.90;;;0.90;;
47373;SDS011;33123;50.118;10.272;2023-04-29T12:09:09;1.42;;;1.20;;
47373;SDS011;33123;50.118;10.272;2023-04-29T12:11:36;1.35;;;1.25;;
47373;SDS011;33123;50.118;10.272;2023-04-29T12:14:03;1.38;;;1.27;;
47373;SDS011;33123;50.118;10.272;2023-04-29T12:16:30;1.10;;;0.80;;
47373;SDS011;33123;50.118;10.272;2023-04-29T12:18:57;0.90;;;0.90;;
47373;SDS011;33123;50.118;10.272;2023-04-29T12:21:26;0.70;;;0.70;;
47373;SDS011;33123;50.118;10.272;2023-04-29T12:23:53;0.70;;;0.70;;
47373;SDS011;33123;50.118;10.272;2023-04-29T12:26:20;1.58;;;1.48;;
47373;SDS011;33123;50.118;10.272;2023-04-29T12:28:47;1.00;;;1.00;;
47373;SDS011;33123;50.118;10.272;2023-04-29T12:31:14;1.13;;;1.02;;
47373;SDS011;33123;50.118;10.272;2023-04-29T12:33:44;0.70;;;0.70;;
47373;SDS011;33123;50.118;10.272;2023-04-29T12:36:16;0.85;;;0.85;;
47373;SDS011;33123;50.118;10.272;2023-04-29T12:38:56;0.50;;;0.50;;
47373;SDS011;33123;50.118;10.272;2023-04-29T12:41:36;0.68;;;0.68;;
47373;SDS011;33123;50.118;10.272;2023-04-29T12:44:10;0.65;;;0.65;;
47373;SDS011;33123;50.118;10.272;2023-04-29T12:46:43;0.70;;;0.70;;
47373;SDS011;33123;50.118;10.272;2023-04-29T12:49:13;0.82;;;0.82;;
47373;SDS011;33123;50.118;10.272;2023-04-29T12:51:48;0.98;;;0.98;;
47373;SDS011;33123;50.118;10.272;2023-04-29T12:54:27;0.63;;;0.63;;
47373;SDS011;33123;50.118;10.272;2023-04-29T12:57:00;1.15;;;0.90;;
47373;SDS011;33123;50.118;10.272;2023-04-29T13:02:02;1.13;;;1.13;;
47373;SDS011;33123;50.118;10.272;2023-04-29T13:04:40;0.77;;;0.77;;
47373;SDS011;33123;50.118;10.272;2023-04-29T13:07:18;1.02;;;0.93;;
47373;SDS011;33123;50.118;10.272;2023-04-29T13:10:02;3.90;;;2.03;;
47373;SDS011;33123;50.118;10.272;2023-04-29T13:12:34;2.67;;;1.90;;
47373;SDS011;33123;50.118;10.272;2023-04-29T13:15:14;5.85;;;2.90;;
47373;SDS011;33123;50.118;10.272;2023-04-29T13:17:49;1.55;;;1.45;;
47373;SDS011;33123;50.118;10.272;2023-04-29T13:20:16;1.08;;;1.08;;
47373;SDS011;33123;50.118;10.272;2023-04-29T13:22:43;1.27;;;1.20;;
47373;SDS011;33123;50.118;10.272;2023-04-29T13:25:12;0.75;;;0.75;;
47373;SDS011;33123;50.118;10.272;2023-04-29T13:27:40;1.77;;;1.63;;
47373;SDS011;33123;50.118;10.272;2023-04-29T13:30:08;1.42;;;1.25;;
47373;SDS011;33123;50.118;10.272;2023-04-29T13:32:35;1.90;;;1.38;;
47373;SDS011;33123;50.118;10.272;2023-04-29T13:35:06;2.97;;;2.67;;
47373;SDS011;33123;50.118;10.272;2023-04-29T13:37:33;1.23;;;1.13;;
47373;SDS011;33123;50.118;10.272;2023-04-29T13:40:00;0.88;;;0.85;;
47373;SDS011;33123;50.118;10.272;2023-04-29T13:42:28;2.80;;;1.63;;
47373;SDS011;33123;50.118;10.272;2023-04-29T13:44:55;1.88;;;1.25;;
47373;SDS011;33123;50.118;10.272;2023-04-29T13:47:22;1.20;;;1.13;;
47373;SDS011;33123;50.118;10.272;2023-04-29T13:49:49;1.85;;;1.75;;
47373;SDS011;33123;50.118;10.272;2023-04-29T13:52:16;2.50;;;1.27;;
47373;SDS011;33123;50.118;10.272;2023-04-29T13:54:43;1.35;;;0.98;;
47373;SDS011;33123;50.118;10.272;2023-04-29T13:57:11;1.38;;;1.27;;
47373;SDS011;33123;50.118;10.272;2023-04-29T13:59:40;1.45;;;1.35;;
47373;SDS011;33123;50.118;10.272;2023-04-29T14:02:07;1.40;;;1.30;;
47373;SDS011;33123;50.118;10.272;2023-04-29T14:04:37;1.55;;;1.38;;
47373;SDS011;33123;50.118;10.272;2023-04-29T14:07:04;1.30;;;1.20;;
47373;SDS011;33123;50.118;10.272;2023-04-29T14:09:30;1.00;;;0.93;;
47373;SDS011;33123;50.118;10.272;2023-04-29T14:11:57;1.48;;;1.38;;
47373;SDS011;33123;50.118;10.272;2023-04-29T14:14:24;1.20;;;1.10;;
47373;SDS011;33123;50.118;10.272;2023-04-29T14:16:52;1.73;;;1.40;;
47373;SDS011;33123;50.118;10.272;2023-04-29T14:19:19;3.40;;;2.13;;
47373;SDS011;33123;50.118;10.272;2023-04-29T14:21:45;1.35;;;1.25;;
47373;SDS011;33123;50.118;10.272;2023-04-29T14:24:13;1.35;;;1.25;;
47373;SDS011;33123;50.118;10.272;2023-04-29T14:26:40;1.45;;;1.35;;
47373;SDS011;33123;50.118;10.272;2023-04-29T14:29:07;1.80;;;1.70;;
47373;SDS011;33123;50.118;10.272;2023-04-29T14:31:34;1.55;;;1.10;;
47373;SDS011;33123;50.118;10.272;2023-04-29T14:34:03;1.33;;;1.23;;
47373;SDS011;33123;50.118;10.272;2023-04-29T14:36:30;1.70;;;1.60;;
47373;SDS011;33123;50.118;10.272;2023-04-29T14:38:58;1.80;;;1.15;;
47373;SDS011;33123;50.118;10.272;2023-04-29T14:41:24;1.30;;;1.20;;
47373;SDS011;33123;50.118;10.272;2023-04-29T14:43:51;2.55;;;2.00;;
47373;SDS011;33123;50.118;10.272;2023-04-29T14:46:18;1.80;;;1.50;;
47373;SDS011;33123;50.118;10.272;2023-04-29T14:48:46;1.50;;;1.40;;
47373;SDS011;33123;50.118;10.272;2023-04-29T14:51:14;1.65;;;1.42;;
47373;SDS011;33123;50.118;10.272;2023-04-29T14:53:40;1.73;;;1.63;;
47373;SDS011;33123;50.118;10.272;2023-04-29T14:56:07;3.22;;;1.60;;
47373;SDS011;33123;50.118;10.272;2023-04-29T14:58:34;1.80;;;1.70;;